sensor_id;sensor_type;location;lat;lon;timestamp;P1;durP1;ratioP1;P2;durP2;ratioP2
11046;SDS011;5576;50.008;10.596;2023-03-14T00:01:47;1.20;;;1.00;;
11046;SDS011;5576;50.008;10.596;2023-03-14T00:04:13;1.27;;;0.80;;
11046;SDS011;5576;50.008;10.596;2023-03-14T00:06:39;1.60;;;0.90;;
11046;SDS011;5576;50.008;10.596;2023-03-14T00:09:05;1.33;;;1.00;;
11046;SDS011;5576;50.008;10.596;2023-03-14T00:11:31;2.40;;;1.00;;
11046;SDS011;5576;50.008;10.596;2023-03-14T00:13:57;1.10;;;0.90;;
11046;SDS011;5576;50.008;10.596;2023-03-14T00:16:23;1.08;;;1.00;;
11046;SDS011;5576;50.008;10.596;2023-03-14T00:18:48;1.03;;;0.93;;
11046;SDS011;5576;50.008;10.596;2023-03-14T00:21:14;1.65;;;1.10;;
11046;SDS011;5576;50.008;10.596;2023-03-14T00:23:40;1.10;;;1.00;;
11046;SDS011;5576;50.008;10.596;2023-03-14T00:26:15;0.98;;;0.95;;
11046;SDS011;5576;50.008;10.596;2023-03-14T00:28:42;1.00;;;0.90;;
11046;SDS011;5576;50.008;10.596;2023-03-14T00:31:09;1.13;;;0.90;;
11046;SDS011;5576;50.008;10.596;2023-03-14T00:33:37;2.00;;;1.10;;
11046;SDS011;5576;50.008;10.596;2023-03-14T00:36:04;1.25;;;1.00;;
11046;SDS011;5576;50.008;10.596;2023-03-14T00:38:32;1.23;;;1.05;;
11046;SDS011;5576;50.008;10.596;2023-03-14T00:40:58;1.20;;;1.00;;
11046;SDS011;5576;50.008;10.596;2023-03-14T00:43:25;1.58;;;1.10;;
11046;SDS011;5576;50.008;10.596;2023-03-14T00:45:51;0.90;;;0.70;;
11046;SDS011;5576;50.008;10.596;2023-03-14T00:48:18;1.10;;;0.70;;
11046;SDS011;5576;50.008;10.596;2023-03-14T00:50:44;1.20;;;0.70;;
11046;SDS011;5576;50.008;10.596;2023-03-14T00:53:11;0.75;;;0.60;;
11046;SDS011;5576;50.008;10.596;2023-03-14T00:55:37;0.70;;;0.70;;
11046;SDS011;5576;50.008;10.596;2023-03-14T00:58:04;0.55;;;0.55;;
11046;SDS011;5576;50.008;10.596;2023-03-14T01:00:30;0.70;;;0.60;;
11046;SDS011;5576;50.008;10.596;2023-03-14T01:02:56;0.60;;;0.60;;
11046;SDS011;5576;50.008;10.596;2023-03-14T01:05:22;0.60;;;0.60;;
11046;SDS011;5576;50.008;10.596;2023-03-14T01:07:49;0.50;;;0.50;;
11046;SDS011;5576;50.008;10.596;2023-03-14T01:10:15;0.70;;;0.70;;
11046;SDS011;5576;50.008;10.596;2023-03-14T01:12:41;1.40;;;0.60;;
11046;SDS011;5576;50.008;10.596;2023-03-14T01:15:07;0.60;;;0.60;;
11046;SDS011;5576;50.008;10.596;2023-03-14T01:17:33;0.60;;;0.60;;
11046;SDS011;5576;50.008;10.596;2023-03-14T01:19:59;0.90;;;0.60;;
11046;SDS011;5576;50.008;10.596;2023-03-14T01:22:25;0.60;;;0.60;;
11046;SDS011;5576;50.008;10.596;2023-03-14T01:24:51;0.73;;;0.70;;
11046;SDS011;5576;50.008;10.596;2023-03-14T01:27:17;0.90;;;0.68;;
11046;SDS011;5576;50.008;10.596;2023-03-14T01:29:43;0.73;;;0.60;;
11046;SDS011;5576;50.008;10.596;2023-03-14T01:32:08;0.65;;;0.60;;
11046;SDS011;5576;50.008;10.596;2023-03-14T01:34:34;0.60;;;0.60;;
11046;SDS011;5576;50.008;10.596;2023-03-14T01:37:00;0.93;;;0.60;;
11046;SDS011;5576;50.008;10.596;2023-03-14T01:39:26;0.60;;;0.60;;
11046;SDS011;5576;50.008;10.596;2023-03-14T01:41:53;1.10;;;0.60;;
11046;SDS011;5576;50.008;10.596;2023-03-14T01:44:19;0.80;;;0.50;;
11046;SDS011;5576;50.008;10.596;2023-03-14T01:46:45;0.60;;;0.60;;
11046;SDS011;5576;50.008;10.596;2023-03-14T01:49:29;1.27;;;0.60;;
11046;SDS011;5576;50.008;10.596;2023-03-14T01:54:59;1.45;;;0.70;;
11046;SDS011;5576;50.008;10.596;2023-03-14T01:57:32;0.95;;;0.60;;
11046;SDS011;5576;50.008;10.596;2023-03-14T02:00:04;1.23;;;0.80;;
11046;SDS011;5576;50.008;10.596;2023-03-14T02:02:43;0.70;;;0.60;;
11046;SDS011;5576;50.008;10.596;2023-03-14T02:05:15;1.20;;;0.60;;
11046;SDS011;5576;50.008;10.596;2023-03-14T02:07:52;1.42;;;0.90;;
11046;SDS011;5576;50.008;10.596;2023-03-14T02:10:25;1.50;;;0.70;;
11046;SDS011;5576;50.008;10.596;2023-03-14T02:12:55;1.45;;;0.70;;
11046;SDS011;5576;50.008;10.596;2023-03-14T02:15:33;0.77;;;0.60;;
11046;SDS011;5576;50.008;10.596;2023-03-14T02:18:05;1.10;;;0.60;;
11046;SDS011;5576;50.008;10.596;2023-03-14T02:20:58;0.77;;;0.70;;
11046;SDS011;5576;50.008;10.596;2023-03-14T02:26:07;1.55;;;0.80;;
11046;SDS011;5576;50.008;10.596;2023-03-14T02:28:35;1.35;;;0.70;;
11046;SDS011;5576;50.008;10.596;2023-03-14T02:31:02;1.70;;;0.80;;
11046;SDS011;5576;50.008;10.596;2023-03-14T02:33:32;1.23;;;0.70;;
11046;SDS011;5576;50.008;10.596;2023-03-14T02:35:58;0.90;;;0.77;;
11046;SDS011;5576;50.008;10.596;2023-03-14T02:38:35;0.80;;;0.63;;
11046;SDS011;5576;50.008;10.596;2023-03-14T02:41:06;1.17;;;0.80;;
11046;SDS011;5576;50.008;10.596;2023-03-14T02:43:37;1.00;;;0.80;;
11046;SDS011;5576;50.008;10.596;2023-03-14T02:46:08;1.33;;;0.80;;
11046;SDS011;5576;50.008;10.596;2023-03-14T02:48:39;1.15;;;0.70;;
11046;SDS011;5576;50.008;10.596;2023-03-14T02:51:10;1.30;;;0.70;;
11046;SDS011;5576;50.008;10.596;2023-03-14T02:53:38;1.70;;;0.70;;
11046;SDS011;5576;50.008;10.596;2023-03-14T02:56:09;1.83;;;0.82;;
11046;SDS011;5576;50.008;10.596;2023-03-14T02:58:36;1.43;;;0.70;;
11046;SDS011;5576;50.008;10.596;2023-03-14T03:01:12;1.60;;;0.70;;
11046;SDS011;5576;50.008;10.596;2023-03-14T03:03:38;0.98;;;0.80;;
11046;SDS011;5576;50.008;10.596;2023-03-14T03:06:03;1.20;;;0.80;;
11046;SDS011;5576;50.008;10.596;2023-03-14T03:08:30;0.95;;;0.80;;
11046;SDS011;5576;50.008;10.596;2023-03-14T03:10:58;0.80;;;0.60;;
11046;SDS011;5576;50.008;10.596;2023-03-14T03:13:27;1.98;;;0.90;;
11046;SDS011;5576;50.008;10.596;2023-03-14T03:15:54;1.33;;;0.73;;
11046;SDS011;5576;50.008;10.596;2023-03-14T03:18:26;1.50;;;0.95;;
11046;SDS011;5576;50.008;10.596;2023-03-14T03:20:52;0.90;;;0.68;;
11046;SDS011;5576;50.008;10.596;2023-03-14T03:23:18;1.25;;;0.82;;
11046;SDS011;5576;50.008;10.596;2023-03-14T03:25:47;0.90;;;0.70;;
11046;SDS011;5576;50.008;10.596;2023-03-14T03:28:14;1.52;;;0.77;;
11046;SDS011;5576;50.008;10.596;2023-03-14T03:30:41;2.50;;;0.90;;
11046;SDS011;5576;50.008;10.596;2023-03-14T03:33:08;1.70;;;0.88;;
11046;SDS011;5576;50.008;10.596;2023-03-14T03:35:35;1.00;;;0.70;;
11046;SDS011;5576;50.008;10.596;2023-03-14T03:38:07;1.25;;;0.80;;
11046;SDS011;5576;50.008;10.596;2023-03-14T03:40:33;1.83;;;0.70;;
11046;SDS011;5576;50.008;10.596;2023-03-14T03:42:59;1.80;;;0.90;;
11046;SDS011;5576;50.008;10.596;2023-03-14T03:45:26;1.33;;;0.75;;
11046;SDS011;5576;50.008;10.596;2023-03-14T03:47:54;1.70;;;0.88;;
11046;SDS011;5576;50.008;10.596;2023-03-14T03:50:21;1.80;;;0.82;;
11046;SDS011;5576;50.008;10.596;2023-03-14T03:52:47;1.88;;;0.70;;
11046;SDS011;5576;50.008;10.596;2023-03-14T03:55:13;1.27;;;0.70;;
11046;SDS011;5576;50.008;10.596;2023-03-14T03:57:39;1.55;;;0.70;;
11046;SDS011;5576;50.008;10.596;2023-03-14T04:00:05;1.50;;;0.80;;
11046;SDS011;5576;50.008;10.596;2023-03-14T04:02:40;2.10;;;0.90;;
11046;SDS011;5576;50.008;10.596;2023-03-14T04:05:09;1.45;;;0.80;;
11046;SDS011;5576;50.008;10.596;2023-03-14T04:07:36;1.93;;;0.90;;
11046;SDS011;5576;50.008;10.596;2023-03-14T04:10:04;1.67;;;0.80;;
11046;SDS011;5576;50.008;10.596;2023-03-14T04:12:35;1.00;;;0.80;;
11046;SDS011;5576;50.008;10.596;2023-03-14T04:15:08;1.90;;;0.80;;
11046;SDS011;5576;50.008;10.596;2023-03-14T04:17:36;1.65;;;0.90;;
11046;SDS011;5576;50.008;10.596;2023-03-14T04:20:02;1.07;;;0.90;;
11046;SDS011;5576;50.008;10.596;2023-03-14T04:22:34;1.67;;;0.80;;
11046;SDS011;5576;50.008;10.596;2023-03-14T04:24:59;1.95;;;0.90;;
11046;SDS011;5576;50.008;10.596;2023-03-14T04:27:29;1.80;;;0.80;;
11046;SDS011;5576;50.008;10.596;2023-03-14T04:29:55;1.97;;;0.90;;
11046;SDS011;5576;50.008;10.596;2023-03-14T04:32:38;2.08;;;0.80;;
11046;SDS011;5576;50.008;10.596;2023-03-14T04:35:04;1.85;;;0.88;;
11046;SDS011;5576;50.008;10.596;2023-03-14T04:37:30;1.85;;;0.80;;
11046;SDS011;5576;50.008;10.596;2023-03-14T04:39:56;1.47;;;0.87;;
11046;SDS011;5576;50.008;10.596;2023-03-14T04:42:25;1.30;;;0.90;;
11046;SDS011;5576;50.008;10.596;2023-03-14T04:44:51;2.40;;;0.90;;
11046;SDS011;5576;50.008;10.596;2023-03-14T04:47:20;2.20;;;1.13;;
11046;SDS011;5576;50.008;10.596;2023-03-14T04:49:48;2.30;;;1.00;;
11046;SDS011;5576;50.008;10.596;2023-03-14T04:52:14;1.35;;;0.90;;
11046;SDS011;5576;50.008;10.596;2023-03-14T04:54:41;2.03;;;0.90;;
11046;SDS011;5576;50.008;10.596;2023-03-14T04:57:07;1.80;;;0.80;;
11046;SDS011;5576;50.008;10.596;2023-03-14T04:59:35;2.42;;;1.00;;
11046;SDS011;5576;50.008;10.596;2023-03-14T05:02:20;1.70;;;0.90;;
11046;SDS011;5576;50.008;10.596;2023-03-14T05:05:03;1.80;;;0.98;;
11046;SDS011;5576;50.008;10.596;2023-03-14T05:07:49;2.25;;;0.95;;
11046;SDS011;5576;50.008;10.596;2023-03-14T05:10:34;2.03;;;0.80;;
11046;SDS011;5576;50.008;10.596;2023-03-14T05:13:20;1.85;;;0.90;;
11046;SDS011;5576;50.008;10.596;2023-03-14T05:16:04;1.63;;;0.85;;
11046;SDS011;5576;50.008;10.596;2023-03-14T05:18:51;3.45;;;0.95;;
11046;SDS011;5576;50.008;10.596;2023-03-14T05:21:37;2.47;;;1.20;;
11046;SDS011;5576;50.008;10.596;2023-03-14T05:24:22;3.55;;;1.00;;
11046;SDS011;5576;50.008;10.596;2023-03-14T05:27:08;2.25;;;0.98;;
11046;SDS011;5576;50.008;10.596;2023-03-14T05:29:41;3.00;;;1.20;;
11046;SDS011;5576;50.008;10.596;2023-03-14T05:32:23;2.35;;;1.10;;
11046;SDS011;5576;50.008;10.596;2023-03-14T05:34:56;2.57;;;0.90;;
11046;SDS011;5576;50.008;10.596;2023-03-14T05:37:41;1.77;;;1.00;;
11046;SDS011;5576;50.008;10.596;2023-03-14T05:40:18;2.72;;;1.00;;
11046;SDS011;5576;50.008;10.596;2023-03-14T05:42:53;2.30;;;0.90;;
11046;SDS011;5576;50.008;10.596;2023-03-14T05:45:40;3.10;;;1.30;;
11046;SDS011;5576;50.008;10.596;2023-03-14T05:48:26;2.78;;;0.90;;
11046;SDS011;5576;50.008;10.596;2023-03-14T05:51:12;1.25;;;0.80;;
11046;SDS011;5576;50.008;10.596;2023-03-14T05:53:57;1.93;;;1.00;;
11046;SDS011;5576;50.008;10.596;2023-03-14T05:56:43;2.22;;;1.10;;
11046;SDS011;5576;50.008;10.596;2023-03-14T05:59:22;2.72;;;1.00;;
11046;SDS011;5576;50.008;10.596;2023-03-14T06:01:58;2.63;;;0.98;;
11046;SDS011;5576;50.008;10.596;2023-03-14T06:04:26;1.30;;;0.80;;
11046;SDS011;5576;50.008;10.596;2023-03-14T06:06:57;4.27;;;1.00;;
11046;SDS011;5576;50.008;10.596;2023-03-14T06:09:22;2.05;;;1.02;;
11046;SDS011;5576;50.008;10.596;2023-03-14T06:11:50;2.88;;;0.90;;
11046;SDS011;5576;50.008;10.596;2023-03-14T06:14:17;2.10;;;0.90;;
11046;SDS011;5576;50.008;10.596;2023-03-14T06:16:45;1.67;;;1.00;;
11046;SDS011;5576;50.008;10.596;2023-03-14T06:19:15;3.33;;;1.30;;
11046;SDS011;5576;50.008;10.596;2023-03-14T06:21:42;1.77;;;0.90;;
11046;SDS011;5576;50.008;10.596;2023-03-14T06:24:08;3.35;;;1.30;;
11046;SDS011;5576;50.008;10.596;2023-03-14T06:26:39;3.53;;;1.20;;
11046;SDS011;5576;50.008;10.596;2023-03-14T06:29:05;3.13;;;0.93;;
11046;SDS011;5576;50.008;10.596;2023-03-14T06:31:32;1.55;;;0.90;;
11046;SDS011;5576;50.008;10.596;2023-03-14T06:34:02;2.30;;;0.98;;
11046;SDS011;5576;50.008;10.596;2023-03-14T06:36:30;2.90;;;1.10;;
11046;SDS011;5576;50.008;10.596;2023-03-14T06:38:57;3.10;;;1.00;;
11046;SDS011;5576;50.008;10.596;2023-03-14T06:41:23;3.15;;;1.10;;
11046;SDS011;5576;50.008;10.596;2023-03-14T06:43:51;3.97;;;1.10;;
11046;SDS011;5576;50.008;10.596;2023-03-14T06:46:19;2.93;;;1.10;;
11046;SDS011;5576;50.008;10.596;2023-03-14T06:48:44;2.70;;;1.00;;
11046;SDS011;5576;50.008;10.596;2023-03-14T06:51:11;2.97;;;1.10;;
11046;SDS011;5576;50.008;10.596;2023-03-14T06:53:37;2.47;;;1.20;;
11046;SDS011;5576;50.008;10.596;2023-03-14T06:56:04;2.78;;;0.98;;
11046;SDS011;5576;50.008;10.596;2023-03-14T06:58:32;2.50;;;0.93;;
11046;SDS011;5576;50.008;10.596;2023-03-14T07:00:59;2.85;;;1.20;;
11046;SDS011;5576;50.008;10.596;2023-03-14T07:03:30;4.10;;;1.30;;
11046;SDS011;5576;50.008;10.596;2023-03-14T07:05:55;1.80;;;0.87;;
11046;SDS011;5576;50.008;10.596;2023-03-14T07:08:21;1.73;;;0.80;;
11046;SDS011;5576;50.008;10.596;2023-03-14T07:10:47;2.80;;;1.07;;
11046;SDS011;5576;50.008;10.596;2023-03-14T07:13:13;4.55;;;1.38;;
11046;SDS011;5576;50.008;10.596;2023-03-14T07:15:49;2.00;;;1.00;;
11046;SDS011;5576;50.008;10.596;2023-03-14T07:18:14;5.13;;;1.35;;
11046;SDS011;5576;50.008;10.596;2023-03-14T07:20:40;3.10;;;1.03;;
11046;SDS011;5576;50.008;10.596;2023-03-14T07:23:07;3.92;;;1.13;;
11046;SDS011;5576;50.008;10.596;2023-03-14T07:25:38;2.13;;;0.90;;
11046;SDS011;5576;50.008;10.596;2023-03-14T07:28:04;2.55;;;0.98;;
11046;SDS011;5576;50.008;10.596;2023-03-14T07:30:31;3.08;;;1.00;;
11046;SDS011;5576;50.008;10.596;2023-03-14T07:33:00;1.98;;;0.90;;
11046;SDS011;5576;50.008;10.596;2023-03-14T07:35:26;2.40;;;1.05;;
11046;SDS011;5576;50.008;10.596;2023-03-14T07:37:52;2.45;;;0.98;;
11046;SDS011;5576;50.008;10.596;2023-03-14T07:40:25;2.60;;;1.10;;
11046;SDS011;5576;50.008;10.596;2023-03-14T07:42:51;2.85;;;1.10;;
11046;SDS011;5576;50.008;10.596;2023-03-14T07:45:25;1.83;;;1.20;;
11046;SDS011;5576;50.008;10.596;2023-03-14T07:47:51;1.90;;;1.00;;
11046;SDS011;5576;50.008;10.596;2023-03-14T07:50:17;2.20;;;1.40;;
11046;SDS011;5576;50.008;10.596;2023-03-14T07:52:44;2.75;;;0.90;;
11046;SDS011;5576;50.008;10.596;2023-03-14T07:55:10;1.57;;;0.73;;
11046;SDS011;5576;50.008;10.596;2023-03-14T07:57:38;2.75;;;1.08;;
11046;SDS011;5576;50.008;10.596;2023-03-14T08:00:04;1.58;;;0.90;;
11046;SDS011;5576;50.008;10.596;2023-03-14T08:02:39;2.78;;;1.10;;
11046;SDS011;5576;50.008;10.596;2023-03-14T08:05:06;3.65;;;1.40;;
11046;SDS011;5576;50.008;10.596;2023-03-14T08:07:32;2.33;;;1.10;;
11046;SDS011;5576;50.008;10.596;2023-03-14T08:09:58;2.63;;;1.08;;
11046;SDS011;5576;50.008;10.596;2023-03-14T08:12:23;2.97;;;0.80;;
11046;SDS011;5576;50.008;10.596;2023-03-14T08:14:49;2.42;;;1.33;;
11046;SDS011;5576;50.008;10.596;2023-03-14T08:17:15;2.50;;;1.50;;
11046;SDS011;5576;50.008;10.596;2023-03-14T08:19:41;3.22;;;1.40;;
11046;SDS011;5576;50.008;10.596;2023-03-14T08:22:07;2.95;;;1.30;;
11046;SDS011;5576;50.008;10.596;2023-03-14T08:24:33;3.83;;;1.50;;
11046;SDS011;5576;50.008;10.596;2023-03-14T08:26:59;4.87;;;1.50;;
11046;SDS011;5576;50.008;10.596;2023-03-14T08:29:25;2.85;;;1.20;;
11046;SDS011;5576;50.008;10.596;2023-03-14T08:31:50;1.83;;;0.90;;
11046;SDS011;5576;50.008;10.596;2023-03-14T08:34:16;2.08;;;0.90;;
11046;SDS011;5576;50.008;10.596;2023-03-14T08:36:42;2.53;;;0.80;;
11046;SDS011;5576;50.008;10.596;2023-03-14T08:39:08;2.42;;;1.10;;
11046;SDS011;5576;50.008;10.596;2023-03-14T08:41:34;2.70;;;1.00;;
11046;SDS011;5576;50.008;10.596;2023-03-14T08:44:05;2.70;;;0.90;;
11046;SDS011;5576;50.008;10.596;2023-03-14T08:46:32;1.87;;;0.90;;
11046;SDS011;5576;50.008;10.596;2023-03-14T08:48:58;2.50;;;0.88;;
11046;SDS011;5576;50.008;10.596;2023-03-14T08:51:24;1.58;;;0.85;;
11046;SDS011;5576;50.008;10.596;2023-03-14T08:53:50;3.33;;;0.87;;
11046;SDS011;5576;50.008;10.596;2023-03-14T08:56:16;2.80;;;1.13;;
11046;SDS011;5576;50.008;10.596;2023-03-14T08:58:41;2.20;;;0.90;;
11046;SDS011;5576;50.008;10.596;2023-03-14T09:01:08;2.42;;;0.90;;
11046;SDS011;5576;50.008;10.596;2023-03-14T09:03:35;2.22;;;0.90;;
11046;SDS011;5576;50.008;10.596;2023-03-14T09:06:02;1.70;;;0.80;;
11046;SDS011;5576;50.008;10.596;2023-03-14T09:08:30;2.25;;;0.80;;
11046;SDS011;5576;50.008;10.596;2023-03-14T09:10:56;2.80;;;0.97;;
11046;SDS011;5576;50.008;10.596;2023-03-14T09:13:21;3.08;;;0.80;;
11046;SDS011;5576;50.008;10.596;2023-03-14T09:15:50;2.65;;;0.90;;
11046;SDS011;5576;50.008;10.596;2023-03-14T09:18:16;1.90;;;0.75;;
11046;SDS011;5576;50.008;10.596;2023-03-14T09:20:42;2.83;;;0.90;;
11046;SDS011;5576;50.008;10.596;2023-03-14T09:23:08;1.70;;;0.70;;
11046;SDS011;5576;50.008;10.596;2023-03-14T09:25:33;1.52;;;0.80;;
11046;SDS011;5576;50.008;10.596;2023-03-14T09:27:59;1.80;;;1.03;;
11046;SDS011;5576;50.008;10.596;2023-03-14T09:30:25;3.45;;;1.00;;
11046;SDS011;5576;50.008;10.596;2023-03-14T09:32:51;3.92;;;1.92;;
11046;SDS011;5576;50.008;10.596;2023-03-14T09:35:17;3.25;;;1.70;;
11046;SDS011;5576;50.008;10.596;2023-03-14T09:37:43;5.00;;;2.88;;
11046;SDS011;5576;50.008;10.596;2023-03-14T09:40:11;7.43;;;3.88;;
11046;SDS011;5576;50.008;10.596;2023-03-14T09:42:39;3.50;;;1.40;;
11046;SDS011;5576;50.008;10.596;2023-03-14T09:45:06;2.42;;;1.42;;
11046;SDS011;5576;50.008;10.596;2023-03-14T09:47:42;0.95;;;0.82;;
11046;SDS011;5576;50.008;10.596;2023-03-14T09:50:11;1.77;;;0.75;;
11046;SDS011;5576;50.008;10.596;2023-03-14T09:52:40;3.03;;;0.90;;
11046;SDS011;5576;50.008;10.596;2023-03-14T09:55:12;1.60;;;0.80;;
11046;SDS011;5576;50.008;10.596;2023-03-14T09:57:41;1.35;;;0.60;;
11046;SDS011;5576;50.008;10.596;2023-03-14T10:02:42;1.55;;;0.70;;
11046;SDS011;5576;50.008;10.596;2023-03-14T10:05:14;1.38;;;0.77;;
11046;SDS011;5576;50.008;10.596;2023-03-14T10:07:42;1.90;;;0.70;;
11046;SDS011;5576;50.008;10.596;2023-03-14T10:10:10;1.27;;;0.60;;
11046;SDS011;5576;50.008;10.596;2023-03-14T10:12:40;2.05;;;0.70;;
11046;SDS011;5576;50.008;10.596;2023-03-14T10:15:11;1.27;;;0.68;;
11046;SDS011;5576;50.008;10.596;2023-03-14T10:20:15;1.70;;;0.57;;
11046;SDS011;5576;50.008;10.596;2023-03-14T10:22:57;1.30;;;0.50;;
11046;SDS011;5576;50.008;10.596;2023-03-14T10:25:31;0.60;;;0.40;;
11046;SDS011;5576;50.008;10.596;2023-03-14T10:27:59;0.55;;;0.50;;
11046;SDS011;5576;50.008;10.596;2023-03-14T10:30:27;0.95;;;0.50;;
11046;SDS011;5576;50.008;10.596;2023-03-14T10:33:09;0.43;;;0.40;;
11046;SDS011;5576;50.008;10.596;2023-03-14T10:35:45;0.70;;;0.47;;
11046;SDS011;5576;50.008;10.596;2023-03-14T10:38:17;1.30;;;0.40;;
11046;SDS011;5576;50.008;10.596;2023-03-14T10:40:47;0.68;;;0.50;;
11046;SDS011;5576;50.008;10.596;2023-03-14T10:43:17;1.07;;;0.73;;
11046;SDS011;5576;50.008;10.596;2023-03-14T10:45:51;0.80;;;0.60;;
11046;SDS011;5576;50.008;10.596;2023-03-14T10:48:31;1.75;;;0.55;;
11046;SDS011;5576;50.008;10.596;2023-03-14T10:56:26;1.63;;;0.57;;
11046;SDS011;5576;50.008;10.596;2023-03-14T10:58:57;0.88;;;0.65;;
11046;SDS011;5576;50.008;10.596;2023-03-14T11:04:02;1.50;;;0.60;;
11046;SDS011;5576;50.008;10.596;2023-03-14T11:06:42;0.57;;;0.50;;
11046;SDS011;5576;50.008;10.596;2023-03-14T11:09:26;1.05;;;0.55;;
11046;SDS011;5576;50.008;10.596;2023-03-14T11:15:15;1.02;;;0.60;;
11046;SDS011;5576;50.008;10.596;2023-03-14T11:20:35;1.00;;;0.57;;
11046;SDS011;5576;50.008;10.596;2023-03-14T11:23:12;0.88;;;0.63;;
11046;SDS011;5576;50.008;10.596;2023-03-14T11:28:19;0.60;;;0.50;;
11046;SDS011;5576;50.008;10.596;2023-03-14T11:30:55;1.10;;;0.50;;
11046;SDS011;5576;50.008;10.596;2023-03-14T11:33:33;1.20;;;0.60;;
11046;SDS011;5576;50.008;10.596;2023-03-14T11:38:37;0.55;;;0.55;;
11046;SDS011;5576;50.008;10.596;2023-03-14T11:41:14;0.40;;;0.40;;
11046;SDS011;5576;50.008;10.596;2023-03-14T11:43:46;2.17;;;0.60;;
11046;SDS011;5576;50.008;10.596;2023-03-14T11:46:16;1.00;;;0.60;;
11046;SDS011;5576;50.008;10.596;2023-03-14T11:48:45;0.40;;;0.40;;
11046;SDS011;5576;50.008;10.596;2023-03-14T11:51:25;0.30;;;0.30;;
11046;SDS011;5576;50.008;10.596;2023-03-14T11:54:04;0.80;;;0.47;;
11046;SDS011;5576;50.008;10.596;2023-03-14T11:56:55;0.60;;;0.40;;
11046;SDS011;5576;50.008;10.596;2023-03-14T11:59:27;0.95;;;0.50;;
11046;SDS011;5576;50.008;10.596;2023-03-14T12:02:09;1.08;;;0.60;;
11046;SDS011;5576;50.008;10.596;2023-03-14T12:04:47;1.30;;;0.50;;
11046;SDS011;5576;50.008;10.596;2023-03-14T12:07:50;1.00;;;0.50;;
11046;SDS011;5576;50.008;10.596;2023-03-14T12:10:45;2.22;;;0.68;;
11046;SDS011;5576;50.008;10.596;2023-03-14T12:13:20;1.20;;;0.50;;
11046;SDS011;5576;50.008;10.596;2023-03-14T12:15:54;0.80;;;0.50;;
11046;SDS011;5576;50.008;10.596;2023-03-14T12:18:27;0.47;;;0.47;;
11046;SDS011;5576;50.008;10.596;2023-03-14T12:21:11;1.33;;;0.73;;
11046;SDS011;5576;50.008;10.596;2023-03-14T12:23:42;0.40;;;0.40;;
11046;SDS011;5576;50.008;10.596;2023-03-14T12:26:25;0.80;;;0.50;;
11046;SDS011;5576;50.008;10.596;2023-03-14T12:34:04;0.50;;;0.50;;
11046;SDS011;5576;50.008;10.596;2023-03-14T12:42:04;0.40;;;0.40;;
11046;SDS011;5576;50.008;10.596;2023-03-14T12:44:51;0.95;;;0.40;;
11046;SDS011;5576;50.008;10.596;2023-03-14T12:49:49;1.75;;;0.70;;
11046;SDS011;5576;50.008;10.596;2023-03-14T12:52:20;0.60;;;0.40;;
11046;SDS011;5576;50.008;10.596;2023-03-14T12:54:55;0.68;;;0.50;;
11046;SDS011;5576;50.008;10.596;2023-03-14T12:57:53;0.77;;;0.70;;
11046;SDS011;5576;50.008;10.596;2023-03-14T13:00:33;0.68;;;0.55;;
11046;SDS011;5576;50.008;10.596;2023-03-14T13:03:02;1.20;;;0.50;;
11046;SDS011;5576;50.008;10.596;2023-03-14T13:05:58;0.70;;;0.43;;
11046;SDS011;5576;50.008;10.596;2023-03-14T13:08:42;0.50;;;0.40;;
11046;SDS011;5576;50.008;10.596;2023-03-14T13:11:15;0.40;;;0.40;;
11046;SDS011;5576;50.008;10.596;2023-03-14T13:13:47;0.70;;;0.50;;
11046;SDS011;5576;50.008;10.596;2023-03-14T13:16:19;2.10;;;1.90;;
11046;SDS011;5576;50.008;10.596;2023-03-14T13:18:46;0.60;;;0.60;;
11046;SDS011;5576;50.008;10.596;2023-03-14T13:24:02;0.90;;;0.50;;
11046;SDS011;5576;50.008;10.596;2023-03-14T13:26:37;0.50;;;0.50;;
11046;SDS011;5576;50.008;10.596;2023-03-14T13:29:09;0.60;;;0.60;;
11046;SDS011;5576;50.008;10.596;2023-03-14T13:31:45;0.90;;;0.50;;
11046;SDS011;5576;50.008;10.596;2023-03-14T13:34:12;0.70;;;0.50;;
11046;SDS011;5576;50.008;10.596;2023-03-14T13:36:37;0.70;;;0.60;;
11046;SDS011;5576;50.008;10.596;2023-03-14T13:39:04;1.30;;;0.83;;
11046;SDS011;5576;50.008;10.596;2023-03-14T13:41:38;1.57;;;1.10;;
11046;SDS011;5576;50.008;10.596;2023-03-14T13:44:08;1.17;;;0.90;;
11046;SDS011;5576;50.008;10.596;2023-03-14T13:46:40;1.17;;;0.90;;
11046;SDS011;5576;50.008;10.596;2023-03-14T13:49:09;1.30;;;1.10;;
11046;SDS011;5576;50.008;10.596;2023-03-14T13:51:40;0.80;;;0.80;;
11046;SDS011;5576;50.008;10.596;2023-03-14T13:54:14;0.60;;;0.60;;
11046;SDS011;5576;50.008;10.596;2023-03-14T13:56:42;0.70;;;0.70;;
11046;SDS011;5576;50.008;10.596;2023-03-14T13:59:24;0.80;;;0.60;;
11046;SDS011;5576;50.008;10.596;2023-03-14T14:01:51;0.70;;;0.60;;
11046;SDS011;5576;50.008;10.596;2023-03-14T14:04:19;0.60;;;0.60;;
11046;SDS011;5576;50.008;10.596;2023-03-14T14:06:49;0.70;;;0.60;;
11046;SDS011;5576;50.008;10.596;2023-03-14T14:11:48;1.23;;;0.60;;
11046;SDS011;5576;50.008;10.596;2023-03-14T14:14:27;0.70;;;0.70;;
11046;SDS011;5576;50.008;10.596;2023-03-14T14:17:18;1.73;;;0.80;;
11046;SDS011;5576;50.008;10.596;2023-03-14T14:19:49;1.65;;;0.90;;
11046;SDS011;5576;50.008;10.596;2023-03-14T14:22:16;1.00;;;0.90;;
11046;SDS011;5576;50.008;10.596;2023-03-14T14:24:42;0.93;;;0.70;;
11046;SDS011;5576;50.008;10.596;2023-03-14T14:29:43;2.00;;;0.70;;
11046;SDS011;5576;50.008;10.596;2023-03-14T14:32:12;0.80;;;0.70;;
11046;SDS011;5576;50.008;10.596;2023-03-14T14:34:40;1.10;;;1.00;;
11046;SDS011;5576;50.008;10.596;2023-03-14T14:37:19;1.30;;;0.93;;
11046;SDS011;5576;50.008;10.596;2023-03-14T14:39:46;0.80;;;0.80;;
11046;SDS011;5576;50.008;10.596;2023-03-14T14:42:13;0.60;;;0.60;;
11046;SDS011;5576;50.008;10.596;2023-03-14T14:44:41;0.90;;;0.90;;
11046;SDS011;5576;50.008;10.596;2023-03-14T14:47:12;1.00;;;0.90;;
11046;SDS011;5576;50.008;10.596;2023-03-14T14:49:39;1.00;;;0.70;;
11046;SDS011;5576;50.008;10.596;2023-03-14T14:52:10;0.90;;;0.70;;
11046;SDS011;5576;50.008;10.596;2023-03-14T14:54:58;0.70;;;0.70;;
11046;SDS011;5576;50.008;10.596;2023-03-14T14:57:26;1.13;;;1.00;;
11046;SDS011;5576;50.008;10.596;2023-03-14T14:59:56;0.98;;;0.98;;
11046;SDS011;5576;50.008;10.596;2023-03-14T15:02:44;0.70;;;0.70;;
11046;SDS011;5576;50.008;10.596;2023-03-14T15:05:16;0.60;;;0.60;;
11046;SDS011;5576;50.008;10.596;2023-03-14T15:07:44;0.70;;;0.70;;
11046;SDS011;5576;50.008;10.596;2023-03-14T15:10:11;2.40;;;1.90;;
11046;SDS011;5576;50.008;10.596;2023-03-14T15:12:38;0.80;;;0.80;;
11046;SDS011;5576;50.008;10.596;2023-03-14T15:15:05;2.23;;;0.97;;
11046;SDS011;5576;50.008;10.596;2023-03-14T15:17:32;0.70;;;0.70;;
11046;SDS011;5576;50.008;10.596;2023-03-14T15:19:58;1.73;;;1.50;;
11046;SDS011;5576;50.008;10.596;2023-03-14T15:22:24;0.60;;;0.60;;
11046;SDS011;5576;50.008;10.596;2023-03-14T15:24:50;1.67;;;1.58;;
11046;SDS011;5576;50.008;10.596;2023-03-14T15:27:16;2.53;;;1.77;;
11046;SDS011;5576;50.008;10.596;2023-03-14T15:29:43;3.10;;;2.20;;
11046;SDS011;5576;50.008;10.596;2023-03-14T15:32:10;2.35;;;1.73;;
11046;SDS011;5576;50.008;10.596;2023-03-14T15:34:38;3.55;;;2.60;;
11046;SDS011;5576;50.008;10.596;2023-03-14T15:37:04;3.13;;;1.67;;
11046;SDS011;5576;50.008;10.596;2023-03-14T15:39:33;2.77;;;2.20;;
11046;SDS011;5576;50.008;10.596;2023-03-14T15:42:00;2.45;;;1.80;;
11046;SDS011;5576;50.008;10.596;2023-03-14T15:44:26;4.20;;;2.47;;
11046;SDS011;5576;50.008;10.596;2023-03-14T15:46:51;1.60;;;1.42;;
11046;SDS011;5576;50.008;10.596;2023-03-14T15:49:17;2.00;;;1.80;;
11046;SDS011;5576;50.008;10.596;2023-03-14T15:51:43;1.27;;;1.17;;
11046;SDS011;5576;50.008;10.596;2023-03-14T15:54:09;0.70;;;0.70;;
11046;SDS011;5576;50.008;10.596;2023-03-14T15:56:35;0.70;;;0.70;;
11046;SDS011;5576;50.008;10.596;2023-03-14T15:59:00;1.00;;;0.80;;